This is the latest recevied weather packets stored in our database for station/object IU2PLZ-10. If no packets are shown the sender has not sent any weather packets the latest 10 day(s).
| Time | Temp. | Humidity | Pressure | Rain* | Wind** | Luminosity | Snow |
|---|---|---|---|---|---|---|---|
| 1777732316 | 20° C | 41% | 969.8 hPa | - | - | - | - |
| 1777731416 | 20.56° C | 40% | 969.9 hPa | - | - | - | - |
| 1777730515 | 20.56° C | 39% | 969.9 hPa | - | - | - | - |
| 1777729615 | 21.11° C | 38% | 970.1 hPa | - | - | - | - |
| 1777728715 | 21.11° C | 37% | 969.5 hPa | - | - | - | - |
| 1777727815 | 21.67° C | 37% | 970.3 hPa | - | - | - | - |
| 1777726915 | 21.11° C | 37% | 969.6 hPa | - | - | - | - |
| 1777726015 | 21.67° C | 37% | 970.5 hPa | - | - | - | - |
| 1777725114 | 20.56° C | 40% | 969.9 hPa | - | - | - | - |
| 1777724214 | 20.56° C | 40% | 969.8 hPa | - | - | - | - |
| 1777723314 | 21.11° C | 39% | 970.6 hPa | - | - | - | - |
| 1777722414 | 21.11° C | 39% | 970.6 hPa | - | - | - | - |
| 1777721514 | 20.56° C | 38% | 969.9 hPa | - | - | - | - |
| 1777720614 | 20.56° C | 37% | 969.9 hPa | - | - | - | - |
| 1777719713 | 21.11° C | 36% | 970.7 hPa | - | - | - | - |
| 1777718813 | 21.67° C | 37% | 970.8 hPa | - | - | - | - |
| 1777717913 | 21.67° C | 36% | 970.9 hPa | - | - | - | - |
| 1777717013 | 21.11° C | 38% | 970.2 hPa | - | - | - | - |
| 1777716113 | 21.11° C | 38% | 970.2 hPa | - | - | - | - |
| 1777715213 | 21.67° C | 39% | 970.9 hPa | - | - | - | - |
| 1777714312 | 21.11° C | 39% | 970.2 hPa | - | - | - | - |
| 1777713412 | 21.11° C | 39% | 970.9 hPa | - | - | - | - |
| 1777712512 | 21.11° C | 39% | 970.7 hPa | - | - | - | - |
| 1777711612 | 21.11° C | 39% | 969.8 hPa | - | - | - | - |
| 1777710712 | 21.67° C | 39% | 970.5 hPa | - | - | - | - |
* Rain since midnight (hover to see other rain measurements)
** Current wind speed in m/s (hover to see current wind gust speed)